Time;durP1;ratioP1;P1;durP2;ratioP2;P2;SDS_P1;SDS_P2;PMS_P1;PMS_P2;Temp;Humidity;BMP_temperature;BMP_pressure;BME280_temperature;BME280_humidity;BME280_pressure;Samples;Min_cycle;Max_cycle;Signal;HPM_P1;HPM_P2
2022/04/13 06:45:18;;;;;;;;;;;;;;;;;;;;;
2022/04/13 06:51:00;;;;;;;9.57;4.55;;;;;;;;;;12910507;22;20012;-88
2022/04/13 07:01:20;;;;;;;7.75;5.30;;;;;;;;;;13035547;22;20061;-87
2022/04/13 07:06:21;;;;;;;5.18;3.42;;;;;;;;;;13031934;22;19995;-83
2022/04/13 07:11:22;;;;;;;6.80;3.13;;;;;;;;;;13038951;22;20050;-78
2022/04/13 07:16:23;;;;;;;10.48;3.50;;;;;;;;;;12999227;22;20002;-77
2022/04/13 07:21:24;;;;;;;5.13;3.10;;;;;;;;;;12998377;22;20008;-78
2022/04/13 07:26:25;;;;;;;5.68;3.40;;;;;;;;;;12997778;22;19999;-78
2022/04/13 07:31:26;;;;;;;10.18;5.40;;;;;;;;;;12993901;22;20385;-78
2022/04/13 07:36:27;;;;;;;7.68;4.30;;;;;;;;;;12992022;22;20015;-78
2022/04/13 07:41:29;;;;;;;5.15;3.28;;;;;;;;;;12994881;22;20139;-79
2022/04/13 07:46:30;;;;;;;6.65;4.07;;;;;;;;;;12996228;22;20121;-79
2022/04/13 07:51:31;;;;;;;7.28;4.90;;;;;;;;;;12993943;22;20042;-79
2022/04/13 07:56:32;;;;;;;7.30;4.00;;;;;;;;;;12997215;22;19995;-81
2022/04/13 08:01:33;;;;;;;4.90;3.65;;;;;;;;;;12995235;22;20015;-79
2022/04/13 08:06:34;;;;;;;6.28;3.03;;;;;;;;;;12994908;22;20014;-80
2022/04/13 08:11:35;;;;;;;15.75;10.70;;;;;;;;;;12993305;22;20012;-79
2022/04/13 08:16:36;;;;;;;7.25;5.18;;;;;;;;;;12991921;22;19996;-78
2022/04/13 08:21:38;;;;;;;9.32;6.20;;;;;;;;;;12991166;22;20000;-78
2022/04/13 08:26:39;;;;;;;4.78;2.80;;;;;;;;;;12991584;22;20404;-77
2022/04/13 08:31:40;;;;;;;3.83;2.50;;;;;;;;;;12987855;22;20146;-77
2022/04/13 08:36:41;;;;;;;5.15;3.17;;;;;;;;;;12990015;22;20004;-77
2022/04/13 08:41:48;;;;;;;9.20;3.30;;;;;;;;;;12991013;22;20436;-77
2022/04/13 08:46:55;;;;;;;11.10;4.82;;;;;;;;;;12990985;22;20095;-78
2022/04/13 08:51:59;;;;;;;8.20;3.90;;;;;;;;;;12992544;22;20073;-78
2022/04/13 08:57:00;;;;;;;7.63;2.92;;;;;;;;;;12992044;22;20000;-80
2022/04/13 09:02:09;;;;;;;8.98;5.78;;;;;;;;;;12993285;22;20008;-78
2022/04/13 09:07:12;;;;;;;4.30;2.90;;;;;;;;;;12996434;22;20004;-79
2022/04/13 09:12:14;;;;;;;9.38;5.32;;;;;;;;;;12994973;22;20010;-83
2022/04/13 09:17:14;;;;;;;8.40;5.25;;;;;;;;;;13002715;22;20038;-84
2022/04/13 09:22:32;;;;;;;6.90;3.47;;;;;;;;;;13014875;22;20050;-82
2022/04/13 09:27:36;;;;;;;9.38;3.65;;;;;;;;;;13025535;22;20003;-81
2022/04/13 09:32:44;;;;;;;8.43;4.55;;;;;;;;;;12983980;22;20007;-82
2022/04/13 09:37:45;;;;;;;6.40;3.78;;;;;;;;;;13006801;22;20014;-82
2022/04/13 09:42:50;;;;;;;7.60;3.97;;;;;;;;;;12978096;22;20087;-82
2022/04/13 09:47:51;;;;;;;6.82;3.53;;;;;;;;;;12981131;22;20379;-81
2022/04/13 09:53:05;;;;;;;6.68;2.90;;;;;;;;;;13007177;22;20030;-82
2022/04/13 09:58:18;;;;;;;13.23;6.50;;;;;;;;;;13004967;22;20065;-80
2022/04/13 10:03:21;;;;;;;5.70;3.25;;;;;;;;;;12982590;22;20011;-81
2022/04/13 10:08:24;;;;;;;10.77;5.72;;;;;;;;;;12983967;22;20000;-81
2022/04/13 10:13:35;;;;;;;6.75;3.10;;;;;;;;;;12986786;22;20454;-81
2022/04/13 10:18:53;;;;;;;5.63;3.00;;;;;;;;;;12987031;22;20015;-81
2022/04/13 10:23:54;;;;;;;10.73;4.18;;;;;;;;;;12990567;22;20423;-82
2022/04/13 10:29:00;;;;;;;10.18;3.42;;;;;;;;;;12981795;22;19996;-82
2022/04/13 10:34:01;;;;;;;6.72;2.90;;;;;;;;;;12991015;22;20003;-81
2022/04/13 10:39:02;;;;;;;8.90;3.20;;;;;;;;;;13010930;22;20000;-80
2022/04/13 10:44:03;;;;;;;4.90;2.47;;;;;;;;;;13002414;22;20025;-82
2022/04/13 10:49:07;;;;;;;6.07;2.75;;;;;;;;;;12979161;22;20478;-80
2022/04/13 10:54:10;;;;;;;5.90;2.97;;;;;;;;;;12976873;22;20003;-79
2022/04/13 10:59:19;;;;;;;6.40;3.88;;;;;;;;;;12987059;22;20046;-80
2022/04/13 11:04:27;;;;;;;6.82;3.10;;;;;;;;;;12987459;22;20003;-79
2022/04/13 11:09:30;;;;;;;3.97;2.47;;;;;;;;;;12986131;22;20002;-79
2022/04/13 11:14:31;;;;;;;6.93;2.95;;;;;;;;;;13007051;22;20003;-82
2022/04/13 11:19:32;;;;;;;8.10;3.58;;;;;;;;;;13032872;22;20000;-81
2022/04/13 11:24:37;;;;;;;11.30;4.60;;;;;;;;;;12992976;22;20015;-85
2022/04/13 11:29:41;;;;;;;11.32;5.93;;;;;;;;;;12989659;22;20477;-84
2022/04/13 11:34:52;;;;;;;11.10;6.75;;;;;;;;;;12980568;22;20019;-82
2022/04/13 11:39:55;;;;;;;25.52;20.70;;;;;;;;;;13007024;22;20020;-83
2022/04/13 11:45:06;;;;;;;17.65;11.55;;;;;;;;;;13006558;22;20014;-83
2022/04/13 11:50:13;;;;;;;18.23;13.05;;;;;;;;;;12981135;22;20034;-83
2022/04/13 11:55:22;;;;;;;21.63;10.77;;;;;;;;;;12987873;22;20011;-82
2022/04/13 12:00:38;;;;;;;9.52;7.30;;;;;;;;;;12973260;22;20035;-84
2022/04/13 12:05:39;;;;;;;17.75;9.90;;;;;;;;;;12999457;22;20074;-79
2022/04/13 12:10:45;;;;;;;28.08;21.73;;;;;;;;;;12970814;22;20014;-79
2022/04/13 12:15:47;;;;;;;16.85;11.27;;;;;;;;;;12977440;22;20072;-82
2022/04/13 12:20:49;;;;;;;10.32;7.40;;;;;;;;;;12998150;22;20000;-79
2022/04/13 12:25:51;;;;;;;9.32;5.93;;;;;;;;;;12966194;22;20289;-78
2022/04/13 12:31:00;;;;;;;11.43;6.10;;;;;;;;;;12980270;22;20016;-79
2022/04/13 12:36:08;;;;;;;9.63;6.05;;;;;;;;;;12975207;22;20008;-81
2022/04/13 12:41:16;;;;;;;9.63;7.45;;;;;;;;;;12976985;22;20003;-81
2022/04/13 12:46:21;;;;;;;9.85;5.00;;;;;;;;;;12975876;22;20154;-81
2022/04/13 12:51:23;;;;;;;11.98;8.30;;;;;;;;;;12977237;22;20098;-81
2022/04/13 12:56:28;;;;;;;11.48;7.55;;;;;;;;;;12974605;22;20000;-80
2022/04/13 13:01:30;;;;;;;7.53;4.63;;;;;;;;;;13004658;22;20010;-81
2022/04/13 13:06:31;;;;;;;5.72;4.05;;;;;;;;;;12978389;22;20007;-80
2022/04/13 13:11:37;;;;;;;6.00;5.03;;;;;;;;;;13003927;22;20022;-79
2022/04/13 13:16:39;;;;;;;7.97;4.82;;;;;;;;;;12999917;22;20012;-81
2022/04/13 13:21:59;;;;;;;8.57;5.32;;;;;;;;;;13018350;22;20085;-85
2022/04/13 13:27:04;;;;;;;6.82;4.63;;;;;;;;;;12980830;22;20046;-85
2022/04/13 13:32:12;;;;;;;9.52;5.90;;;;;;;;;;12978741;22;20023;-85
2022/04/13 13:37:27;;;;;;;7.20;5.03;;;;;;;;;;12982370;22;20000;-80
2022/04/13 13:42:28;;;;;;;9.40;5.18;;;;;;;;;;12984466;22;20015;-81
2022/04/13 13:47:29;;;;;;;7.75;5.18;;;;;;;;;;12998206;22;20506;-79
2022/04/13 13:52:30;;;;;;;7.10;4.57;;;;;;;;;;12972429;22;20497;-80
2022/04/13 13:57:31;;;;;;;9.30;4.65;;;;;;;;;;12969647;22;20087;-79
2022/04/13 14:02:32;;;;;;;6.35;4.60;;;;;;;;;;12975720;22;20088;-79
2022/04/13 14:07:34;;;;;;;8.32;5.05;;;;;;;;;;12965900;22;20082;-79
2022/04/13 14:12:35;;;;;;;7.50;4.88;;;;;;;;;;12966225;22;20042;-79
2022/04/13 14:17:44;;;;;;;7.78;6.32;;;;;;;;;;12966544;22;20012;-80
2022/04/13 14:22:47;;;;;;;9.53;7.63;;;;;;;;;;12968473;22;20008;-78
2022/04/13 14:27:56;;;;;;;9.70;7.35;;;;;;;;;;12977732;22;20010;-82
2022/04/13 14:32:57;;;;;;;11.98;8.15;;;;;;;;;;12980271;22;19987;-82
2022/04/13 14:37:58;;;;;;;9.13;7.25;;;;;;;;;;12978081;22;20007;-80
2022/04/13 14:42:59;;;;;;;7.72;5.22;;;;;;;;;;12977294;22;20030;-82
2022/04/13 14:48:00;;;;;;;7.95;5.65;;;;;;;;;;12976882;22;20010;-81
2022/04/13 14:53:02;;;;;;;5.68;3.95;;;;;;;;;;13002028;22;20027;-80
2022/04/13 14:58:03;;;;;;;28.83;19.77;;;;;;;;;;12980638;22;19999;-80
2022/04/13 15:03:04;;;;;;;15.07;8.77;;;;;;;;;;13003955;22;20007;-80
2022/04/13 15:08:05;;;;;;;6.47;3.58;;;;;;;;;;12972840;22;20066;-79
2022/04/13 15:13:06;;;;;;;6.32;3.35;;;;;;;;;;12990222;22;20018;-78
2022/04/13 15:18:07;;;;;;;4.88;2.70;;;;;;;;;;13015238;22;20008;-84
2022/04/13 15:23:08;;;;;;;5.85;3.25;;;;;;;;;;13019722;22;19995;-81
2022/04/13 15:28:09;;;;;;;4.78;2.80;;;;;;;;;;13016385;22;20359;-84
2022/04/13 15:33:10;;;;;;;5.43;3.05;;;;;;;;;;13006699;22;20027;-84
2022/04/13 15:38:11;;;;;;;8.82;3.35;;;;;;;;;;12976337;22;20000;-84
2022/04/13 15:43:12;;;;;;;6.13;3.13;;;;;;;;;;12987209;22;20024;-85
2022/04/13 15:48:14;;;;;;;4.90;3.20;;;;;;;;;;12977353;22;20158;-83
2022/04/13 15:53:18;;;;;;;6.00;2.78;;;;;;;;;;12979155;22;20087;-81
2022/04/13 15:58:19;;;;;;;5.35;3.03;;;;;;;;;;12998797;22;20008;-83
2022/04/13 16:03:21;;;;;;;4.30;2.80;;;;;;;;;;12982498;22;20012;-85
2022/04/13 16:08:23;;;;;;;4.53;2.85;;;;;;;;;;12979491;22;20083;-82
2022/04/13 16:13:24;;;;;;;4.88;2.95;;;;;;;;;;12975616;22;20004;-79
2022/04/13 16:18:25;;;;;;;4.03;2.95;;;;;;;;;;12979513;22;20340;-82
2022/04/13 16:23:26;;;;;;;5.30;3.45;;;;;;;;;;12981012;22;20011;-85
2022/04/13 16:28:33;;;;;;;6.13;3.70;;;;;;;;;;12985381;22;20003;-85
2022/04/13 16:33:36;;;;;;;4.72;2.97;;;;;;;;;;12985947;22;20088;-85
2022/04/13 16:38:40;;;;;;;5.80;3.40;;;;;;;;;;12986813;22;20000;-84
2022/04/13 16:43:41;;;;;;;6.22;3.63;;;;;;;;;;12989328;22;20018;-85
2022/04/13 16:48:44;;;;;;;7.18;3.88;;;;;;;;;;12984677;22;20004;-83
2022/04/13 16:54:22;;;;;;;6.25;3.25;;;;;;;;;;13025030;22;20040;-85
2022/04/13 16:59:29;;;;;;;4.32;2.83;;;;;;;;;;13013039;22;20082;-83
2022/04/13 17:10:11;;;;;;;4.47;2.63;;;;;;;;;;13019672;22;20020;-84
2022/04/13 17:15:30;;;;;;;5.00;2.67;;;;;;;;;;12977936;22;20094;-84
2022/04/13 17:20:31;;;;;;;5.18;2.55;;;;;;;;;;12987830;22;20431;-83
2022/04/13 17:25:32;;;;;;;5.13;3.10;;;;;;;;;;12984486;22;20000;-83
2022/04/13 17:30:34;;;;;;;4.78;2.78;;;;;;;;;;12982524;22;20082;-84
2022/04/13 17:35:35;;;;;;;3.85;2.40;;;;;;;;;;12992558;22;20000;-83
2022/04/13 17:40:37;;;;;;;5.50;3.10;;;;;;;;;;13003579;22;20003;-83
2022/04/13 17:45:38;;;;;;;8.13;3.95;;;;;;;;;;12994503;22;20004;-84
2022/04/13 17:50:41;;;;;;;3.45;2.40;;;;;;;;;;12980371;22;20031;-83
2022/04/13 17:55:45;;;;;;;7.22;4.90;;;;;;;;;;12987504;22;20022;-83
2022/04/13 18:00:50;;;;;;;5.80;4.32;;;;;;;;;;13005841;22;20008;-84
2022/04/13 18:05:51;;;;;;;4.78;2.80;;;;;;;;;;12983252;22;20007;-84
2022/04/13 18:10:52;;;;;;;5.70;3.53;;;;;;;;;;12982487;22;20095;-83
2022/04/13 18:15:53;;;;;;;5.13;3.08;;;;;;;;;;12982042;22;20336;-83
2022/04/13 18:20:54;;;;;;;5.57;4.10;;;;;;;;;;12981230;22;20089;-82
2022/04/13 18:25:55;;;;;;;2.78;2.00;;;;;;;;;;12994956;22;20008;-83
2022/04/13 18:30:56;;;;;;;7.78;4.32;;;;;;;;;;12985045;22;20035;-84
2022/04/13 18:35:57;;;;;;;6.03;3.75;;;;;;;;;;12980158;22;19995;-84
2022/04/13 18:40:58;;;;;;;9.23;5.63;;;;;;;;;;12981294;22;20000;-84
2022/04/13 18:45:59;;;;;;;3.35;2.55;;;;;;;;;;12978618;22;20080;-83
2022/04/13 18:51:01;;;;;;;7.28;4.95;;;;;;;;;;12978643;22;20003;-85
2022/04/13 18:56:02;;;;;;;7.75;4.88;;;;;;;;;;12979006;22;20060;-84
2022/04/13 19:01:04;;;;;;;7.65;5.30;;;;;;;;;;12993060;22;19987;-83
2022/04/13 19:06:05;;;;;;;5.28;4.00;;;;;;;;;;13004618;22;20008;-83
2022/04/13 19:11:07;;;;;;;4.15;3.08;;;;;;;;;;12994604;22;20011;-83
2022/04/13 19:16:08;;;;;;;5.68;3.22;;;;;;;;;;12981388;22;20094;-83
2022/04/13 19:21:09;;;;;;;4.72;3.72;;;;;;;;;;12981697;22;20015;-83
2022/04/13 19:26:10;;;;;;;3.30;2.70;;;;;;;;;;12976927;22;20062;-83
